createdAt,value
2023-01-28T00:00:21.259Z,100891.20
2023-01-28T00:03:10.955Z,100894.00
2023-01-28T00:05:40.711Z,100894.60
2023-01-28T00:08:13.154Z,100892.00
2023-01-28T00:10:42.973Z,100895.40
2023-01-28T00:13:14.558Z,100895.20
2023-01-28T00:15:44.521Z,100893.00
2023-01-28T00:18:14.331Z,100889.40
2023-01-28T00:20:44.085Z,100892.80
2023-01-28T00:23:13.926Z,100891.60
2023-01-28T00:25:43.563Z,100892.20
2023-01-28T00:28:13.242Z,100886.80
2023-01-28T00:30:42.944Z,100883.60
2023-01-28T00:33:12.762Z,100886.60
2023-01-28T00:35:42.649Z,100887.00
2023-01-28T00:38:11.971Z,100882.20
2023-01-28T00:40:41.619Z,100887.40
2023-01-28T00:43:11.310Z,100884.40
2023-01-28T00:45:41.183Z,100880.60
2023-01-28T00:48:10.932Z,100880.60
2023-01-28T00:50:42.138Z,100878.60
2023-01-28T00:53:11.784Z,100873.60
2023-01-28T00:55:41.394Z,100869.40
2023-01-28T00:58:11.706Z,100868.00
2023-01-28T01:00:41.533Z,100869.40
2023-01-28T01:03:11.330Z,100871.00
2023-01-28T01:05:40.993Z,100868.80
2023-01-28T01:08:11.051Z,100872.40
2023-01-28T01:10:41.309Z,100877.20
2023-01-28T01:13:11.040Z,100876.60
2023-01-28T01:15:40.847Z,100882.60
2023-01-28T01:18:10.874Z,100886.40
2023-01-28T01:20:44.999Z,100889.40
2023-01-28T01:23:14.941Z,100892.60
2023-01-28T01:25:44.578Z,100892.20
2023-01-28T01:28:15.747Z,100891.00
2023-01-28T01:30:45.557Z,100890.40
2023-01-28T01:33:16.940Z,100895.60
2023-01-28T01:35:54.628Z,100896.00
2023-01-28T01:38:25.496Z,100899.40
2023-01-28T01:40:58.248Z,100905.20
2023-01-28T01:43:48.913Z,100909.20
2023-01-28T01:46:23.570Z,100915.60
2023-01-28T01:48:55.788Z,100921.00
2023-01-28T01:51:30.973Z,100915.80
2023-01-28T01:54:02.216Z,100915.20
2023-01-28T01:56:38.717Z,100917.00
2023-01-28T01:59:12.350Z,100914.40
2023-01-28T02:01:45.064Z,100917.00
2023-01-28T02:04:22.410Z,100918.00
2023-01-28T02:06:52.986Z,100919.60
2023-01-28T02:09:29.288Z,100919.80
2023-01-28T02:12:06.006Z,100919.40
2023-01-28T02:14:41.680Z,100920.60
2023-01-28T02:17:12.128Z,100921.80
2023-01-28T02:19:49.459Z,100928.20
2023-01-28T02:22:41.034Z,100931.80
2023-01-28T02:25:40.244Z,100926.40
2023-01-28T02:28:23.508Z,100928.00
2023-01-28T02:30:58.769Z,100924.60
2023-01-28T02:33:35.778Z,100927.20
2023-01-28T02:36:21.127Z,100929.60
2023-01-28T02:38:53.934Z,100923.80
2023-01-28T02:41:29.139Z,100931.60
2023-01-28T02:44:02.091Z,100933.00
2023-01-28T02:46:56.068Z,100932.60
2023-01-28T02:49:32.033Z,100934.80
2023-01-28T02:52:45.899Z,100930.80
2023-01-28T02:55:26.727Z,100932.20
2023-01-28T02:58:06.894Z,100934.40
2023-01-28T03:00:49.878Z,100934.80
2023-01-28T03:03:26.967Z,100935.20
2023-01-28T03:06:03.823Z,100934.00
2023-01-28T03:09:00.103Z,100934.80
2023-01-28T03:11:51.496Z,100932.60
2023-01-28T03:14:40.329Z,100933.60
2023-01-28T03:17:34.669Z,100937.20
2023-01-28T03:20:23.720Z,100942.00
2023-01-28T03:23:15.607Z,100943.60
2023-01-28T03:26:06.828Z,100936.80
2023-01-28T03:28:57.210Z,100937.00
2023-01-28T03:31:45.862Z,100938.40
2023-01-28T03:34:34.199Z,100934.80
2023-01-28T03:37:04.037Z,100935.60
2023-01-28T03:39:47.850Z,100938.80
2023-01-28T03:42:18.325Z,100942.60
2023-01-28T03:45:13.963Z,100941.80
2023-01-28T03:47:44.121Z,100933.00
2023-01-28T03:50:14.552Z,100937.60
2023-01-28T03:53:16.922Z,100943.20
2023-01-28T03:55:56.553Z,100942.20
2023-01-28T03:58:26.674Z,100943.20
2023-01-28T04:00:56.425Z,100942.20
2023-01-28T04:03:26.337Z,100944.80
2023-01-28T04:06:10.480Z,100946.60
2023-01-28T04:09:05.448Z,100940.40
2023-01-28T04:11:56.532Z,100944.60
2023-01-28T04:14:34.027Z,100949.80
2023-01-28T04:17:10.675Z,100951.00
2023-01-28T04:19:41.447Z,100954.80
2023-01-28T04:22:13.241Z,100951.20
2023-01-28T04:24:44.480Z,100947.20
2023-01-28T04:27:14.218Z,100947.00
2023-01-28T04:29:44.039Z,100949.00
2023-01-28T04:32:33.762Z,100960.80
2023-01-28T04:35:20.965Z,100953.00
2023-01-28T04:38:09.712Z,100958.60
2023-01-28T04:40:55.957Z,100964.60
2023-01-28T04:43:31.587Z,100966.60
2023-01-28T04:46:20.351Z,100967.20
2023-01-28T04:49:08.443Z,100972.00
2023-01-28T04:51:54.573Z,100977.00
2023-01-28T04:54:35.568Z,100978.80
2023-01-28T04:57:06.696Z,100976.80
2023-01-28T04:59:38.221Z,100982.80
2023-01-28T05:02:08.736Z,100979.40
2023-01-28T05:04:38.649Z,100982.00
2023-01-28T05:07:09.349Z,100980.40
2023-01-28T05:09:40.186Z,100982.60
2023-01-28T05:12:10.434Z,100989.20
2023-01-28T05:14:41.369Z,100986.80
2023-01-28T05:17:15.503Z,100987.60
2023-01-28T05:19:46.209Z,100987.60
2023-01-28T05:22:22.215Z,100990.00
2023-01-28T05:25:10.496Z,100995.60
2023-01-28T05:27:40.208Z,100999.80
2023-01-28T05:30:12.789Z,100998.60
2023-01-28T05:32:42.673Z,101005.20
2023-01-28T05:35:12.576Z,101005.20
2023-01-28T05:37:42.360Z,101002.20
2023-01-28T05:40:14.658Z,101002.00
2023-01-28T05:42:44.751Z,101003.20
2023-01-28T05:45:25.343Z,100999.00
2023-01-28T05:48:21.499Z,101003.00
2023-01-28T05:51:14.139Z,101006.80
2023-01-28T05:53:48.098Z,101005.60
2023-01-28T05:56:17.963Z,101008.00
2023-01-28T05:58:47.815Z,101003.00
2023-01-28T06:01:17.693Z,101006.80
2023-01-28T06:03:52.173Z,101002.00
2023-01-28T06:06:21.936Z,101009.00
2023-01-28T06:08:51.604Z,101009.20
2023-01-28T06:11:27.739Z,101007.60
2023-01-28T06:14:00.824Z,101013.00
2023-01-28T06:16:45.104Z,101014.60
2023-01-28T06:19:38.084Z,101019.60
2023-01-28T06:22:08.759Z,101020.80
2023-01-28T06:24:38.465Z,101026.40
2023-01-28T06:27:08.838Z,101025.60
2023-01-28T06:29:38.607Z,101020.60
2023-01-28T06:32:08.616Z,101025.40
2023-01-28T06:34:38.609Z,101032.00
2023-01-28T06:37:08.673Z,101034.20
2023-01-28T06:39:38.557Z,101031.20
2023-01-28T06:42:08.522Z,101038.00
2023-01-28T06:44:38.782Z,101038.60
2023-01-28T06:47:08.820Z,101043.80
2023-01-28T06:49:38.636Z,101049.00
2023-01-28T06:52:08.405Z,101049.00
2023-01-28T06:54:38.149Z,101051.40
2023-01-28T06:57:07.810Z,101046.80
2023-01-28T06:59:37.534Z,101054.20
2023-01-28T07:02:07.264Z,101050.20
2023-01-28T07:04:37.214Z,101056.60
2023-01-28T07:07:07.109Z,101058.80
2023-01-28T07:09:37.111Z,101063.80
2023-01-28T07:12:07.367Z,101074.00
2023-01-28T07:14:37.181Z,101073.40
2023-01-28T07:17:07.016Z,101074.80
2023-01-28T07:19:37.099Z,101082.60
2023-01-28T07:22:06.799Z,101079.60
2023-01-28T07:24:36.433Z,101087.60
2023-01-28T07:27:06.188Z,101085.00
2023-01-28T07:29:35.967Z,101089.40
2023-01-28T07:32:06.784Z,101094.00
2023-01-28T07:34:39.389Z,101096.20
2023-01-28T07:37:09.072Z,101092.80
2023-01-28T07:39:38.772Z,101095.20
2023-01-28T07:42:09.224Z,101091.60
2023-01-28T07:44:40.681Z,101086.00
2023-01-28T07:47:11.204Z,101091.80
2023-01-28T07:49:41.104Z,101088.00
2023-01-28T07:52:11.269Z,101091.00
2023-01-28T07:54:41.048Z,101093.20
2023-01-28T07:57:11.068Z,101092.80
2023-01-28T07:59:40.855Z,101084.80
2023-01-28T08:02:13.452Z,101092.00
2023-01-28T08:04:43.268Z,101097.00
2023-01-28T08:07:13.471Z,101102.60
2023-01-28T08:09:43.126Z,101102.40
2023-01-28T08:12:12.828Z,101097.20
2023-01-28T08:14:42.492Z,101099.20
2023-01-28T08:17:12.222Z,101103.00
2023-01-28T08:19:41.893Z,101105.00
2023-01-28T08:22:11.720Z,101113.00
2023-01-28T08:24:41.406Z,101109.80
2023-01-28T08:27:11.111Z,101113.20
2023-01-28T08:29:40.941Z,101112.60
2023-01-28T08:32:10.959Z,101116.40
2023-01-28T08:34:40.723Z,101113.00
2023-01-28T08:37:10.397Z,101110.40
2023-01-28T08:39:40.215Z,101113.20
2023-01-28T08:42:09.879Z,101116.80
2023-01-28T08:44:39.661Z,101116.80
2023-01-28T08:47:09.365Z,101118.40
2023-01-28T08:49:39.367Z,101113.00
2023-01-28T08:52:09.103Z,101116.80
2023-01-28T08:54:39.109Z,101122.80
2023-01-28T08:57:09.071Z,101115.20
2023-01-28T08:59:44.447Z,101114.20
2023-01-28T09:02:30.293Z,101119.40
2023-01-28T09:05:01.022Z,101116.80
2023-01-28T09:07:30.739Z,101113.60
2023-01-28T09:10:00.370Z,101113.60
2023-01-28T09:12:30.106Z,101117.20
2023-01-28T09:14:59.950Z,101117.40
2023-01-28T09:17:29.710Z,101122.20
2023-01-28T09:19:59.444Z,101118.00
2023-01-28T09:22:29.151Z,101128.80
2023-01-28T09:24:58.832Z,101138.60
2023-01-28T09:27:28.465Z,101138.00
2023-01-28T09:29:58.415Z,101139.80
2023-01-28T09:32:28.220Z,101138.80
2023-01-28T09:34:58.203Z,101139.40
2023-01-28T09:37:28.012Z,101148.00
2023-01-28T09:39:57.707Z,101148.80
2023-01-28T09:42:47.472Z,101149.60
2023-01-28T09:45:24.018Z,101150.20
2023-01-28T09:47:56.243Z,101144.40
2023-01-28T09:50:33.074Z,101147.20
2023-01-28T09:53:10.554Z,101150.80
2023-01-28T09:55:46.133Z,101148.00
2023-01-28T09:58:17.943Z,101146.40
2023-01-28T10:00:58.573Z,101151.60
2023-01-28T10:03:53.765Z,101148.40
2023-01-28T10:06:40.963Z,101151.20
2023-01-28T10:09:34.221Z,101154.20
2023-01-28T10:12:22.000Z,101150.00
2023-01-28T10:15:17.587Z,101147.80
2023-01-28T10:17:50.419Z,101150.60
2023-01-28T10:20:25.424Z,101150.40
2023-01-28T10:23:02.960Z,101147.40
2023-01-28T10:25:35.343Z,101141.40
2023-01-28T10:28:15.057Z,101136.60
2023-01-28T10:30:47.689Z,101141.20
2023-01-28T10:33:23.727Z,101146.20
2023-01-28T10:35:54.564Z,101143.80
2023-01-28T10:38:26.964Z,101139.00
2023-01-28T10:41:00.919Z,101143.40
2023-01-28T10:43:35.771Z,101145.60
2023-01-28T10:46:11.408Z,101148.20
2023-01-28T10:48:46.098Z,101147.20
2023-01-28T10:51:15.881Z,101150.00
2023-01-28T10:53:47.228Z,101147.40
2023-01-28T10:56:27.039Z,101149.80
2023-01-28T10:59:02.683Z,101148.00
2023-01-28T11:01:46.017Z,101144.60
2023-01-28T11:04:25.510Z,101147.80
2023-01-28T11:07:02.104Z,101154.00
2023-01-28T11:09:34.821Z,101148.00
2023-01-28T11:12:19.755Z,101152.60
2023-01-28T11:14:55.178Z,101153.60
2023-01-28T11:17:28.788Z,101145.40
2023-01-28T11:20:01.448Z,101151.60
2023-01-28T11:22:36.973Z,101144.20
2023-01-28T11:25:18.824Z,101146.80
2023-01-28T11:27:51.618Z,101142.40
2023-01-28T11:30:27.373Z,101136.60
2023-01-28T11:33:07.786Z,101136.80
2023-01-28T11:35:37.559Z,101141.80
2023-01-28T11:38:20.227Z,101144.20
2023-01-28T11:40:53.837Z,101140.00
2023-01-28T11:43:25.858Z,101147.00
2023-01-28T11:46:36.636Z,101145.00
2023-01-28T11:49:14.234Z,101146.40
2023-01-28T11:51:53.972Z,101145.60
2023-01-28T11:54:42.068Z,101146.60
2023-01-28T11:57:23.924Z,101147.80
2023-01-28T12:00:13.625Z,101148.20
2023-01-28T12:02:54.465Z,101143.80
2023-01-28T12:05:52.724Z,101146.40
2023-01-28T12:08:29.962Z,101136.80
2023-01-28T12:11:16.820Z,101139.00
2023-01-28T12:14:01.425Z,101139.60
2023-01-28T12:17:08.851Z,101133.20
2023-01-28T12:20:11.402Z,101137.80
2023-01-28T12:23:08.716Z,101142.80
2023-01-28T12:25:53.968Z,101137.60
2023-01-28T12:28:38.342Z,101142.20
2023-01-28T12:31:32.069Z,101137.00
2023-01-28T12:34:33.810Z,101138.80
2023-01-28T12:37:13.358Z,101134.00
2023-01-28T12:39:57.655Z,101141.00
2023-01-28T12:42:36.304Z,101136.40
2023-01-28T12:45:16.430Z,101136.80
2023-01-28T12:47:50.675Z,101135.80
2023-01-28T12:50:27.539Z,101135.80
2023-01-28T12:53:03.307Z,101147.20
2023-01-28T12:55:45.774Z,101149.80
2023-01-28T12:58:25.951Z,101148.00
2023-01-28T13:01:06.134Z,101151.60
2023-01-28T13:03:47.238Z,101148.80
2023-01-28T13:06:26.302Z,101146.80
2023-01-28T13:09:04.921Z,101153.20
2023-01-28T13:11:41.085Z,101154.00
2023-01-28T13:14:15.637Z,101151.60
2023-01-28T13:16:48.827Z,101147.60
2023-01-28T13:19:40.802Z,101148.20
2023-01-28T13:22:30.634Z,101151.80
2023-01-28T13:25:23.645Z,101151.20
2023-01-28T13:28:08.079Z,101148.80
2023-01-28T13:30:53.668Z,101145.80
2023-01-28T13:33:36.147Z,101149.20
2023-01-28T13:36:25.378Z,101150.60
2023-01-28T13:39:15.994Z,101150.20
2023-01-28T13:41:48.514Z,101147.20
2023-01-28T13:44:33.181Z,101159.00
2023-01-28T13:47:25.614Z,101162.20
2023-01-28T13:50:03.857Z,101161.60
2023-01-28T13:52:46.726Z,101165.60
2023-01-28T13:55:42.824Z,101162.00
2023-01-28T13:59:07.265Z,101166.20
2023-01-28T14:02:23.172Z,101167.00
2023-01-28T14:05:58.316Z,101169.40
2023-01-28T14:09:16.699Z,101169.60
2023-01-28T14:12:31.733Z,101169.80
2023-01-28T14:15:30.168Z,101176.80
2023-01-28T14:18:06.829Z,101181.00
2023-01-28T14:20:46.239Z,101183.40
2023-01-28T14:23:23.145Z,101183.00
2023-01-28T14:26:12.535Z,101187.40
2023-01-28T14:28:57.551Z,101185.20
2023-01-28T14:31:36.975Z,101185.60
2023-01-28T14:34:23.438Z,101186.20
2023-01-28T14:37:01.370Z,101187.80
2023-01-28T14:39:42.983Z,101195.80
2023-01-28T14:42:23.346Z,101195.60
2023-01-28T14:45:09.271Z,101194.60
2023-01-28T14:48:12.574Z,101193.00
2023-01-28T14:51:06.865Z,101192.20
2023-01-28T14:54:07.219Z,101201.20
2023-01-28T14:56:55.944Z,101201.40
2023-01-28T14:59:34.428Z,101206.20
2023-01-28T15:02:19.645Z,101199.20
2023-01-28T15:04:53.703Z,101206.40
2023-01-28T15:07:29.012Z,101202.00
2023-01-28T15:10:16.845Z,101208.40
2023-01-28T15:12:55.335Z,101212.80
2023-01-28T15:15:35.115Z,101213.60
2023-01-28T15:18:23.803Z,101212.00
2023-01-28T15:20:59.520Z,101211.00
2023-01-28T15:23:37.701Z,101216.60
2023-01-28T15:26:17.194Z,101212.40
2023-01-28T15:28:51.291Z,101209.20
2023-01-28T15:31:28.530Z,101211.80
2023-01-28T15:34:05.474Z,101217.20
2023-01-28T15:36:38.595Z,101222.60
2023-01-28T15:39:20.577Z,101223.20
2023-01-28T15:41:57.402Z,101229.40
2023-01-28T15:44:34.853Z,101227.80
2023-01-28T15:47:18.511Z,101231.00
2023-01-28T15:49:55.199Z,101227.60
2023-01-28T15:52:37.890Z,101233.00
2023-01-28T15:55:33.097Z,101232.80
2023-01-28T15:58:27.917Z,101239.40
2023-01-28T16:01:20.241Z,101245.80
2023-01-28T16:04:06.818Z,101241.60
2023-01-28T16:06:43.045Z,101240.20
2023-01-28T16:09:26.922Z,101236.60
2023-01-28T16:12:08.065Z,101237.00
2023-01-28T16:14:46.802Z,101234.40
2023-01-28T16:17:25.319Z,101234.20
2023-01-28T16:20:04.183Z,101243.20
2023-01-28T16:22:43.607Z,101235.00
2023-01-28T16:25:33.285Z,101237.80
2023-01-28T16:28:18.733Z,101242.00
2023-01-28T16:30:51.781Z,101243.80
2023-01-28T16:33:25.406Z,101238.40
2023-01-28T16:36:08.374Z,101245.20
2023-01-28T16:38:42.224Z,101244.40
2023-01-28T16:41:27.109Z,101249.60
2023-01-28T16:44:01.419Z,101250.40
2023-01-28T16:46:35.106Z,101244.40
2023-01-28T16:49:08.401Z,101250.00
2023-01-28T16:51:44.164Z,101246.40
2023-01-28T16:54:19.727Z,101239.40
2023-01-28T16:56:53.143Z,101240.60
2023-01-28T16:59:26.355Z,101245.20
2023-01-28T17:01:59.448Z,101244.40
2023-01-28T17:04:32.782Z,101242.80
2023-01-28T17:07:05.806Z,101244.00
2023-01-28T17:09:38.895Z,101238.60
2023-01-28T17:12:12.312Z,101239.00
2023-01-28T17:14:45.476Z,101238.80
2023-01-28T17:17:18.758Z,101245.40
2023-01-28T17:19:52.249Z,101242.60
2023-01-28T17:22:25.669Z,101243.20
2023-01-28T17:24:58.784Z,101244.60
2023-01-28T17:27:35.256Z,101246.80
2023-01-28T17:30:10.834Z,101243.40
2023-01-28T17:32:44.185Z,101246.40
2023-01-28T17:35:17.797Z,101250.60
2023-01-28T17:37:53.413Z,101261.00
2023-01-28T17:40:26.979Z,101263.60
2023-01-28T17:43:00.480Z,101261.80
2023-01-28T17:45:35.993Z,101265.20
2023-01-28T17:48:15.050Z,101270.20
2023-01-28T17:50:48.279Z,101276.80
2023-01-28T17:53:21.407Z,101265.60
2023-01-28T17:55:54.451Z,101270.40
2023-01-28T17:58:27.757Z,101269.20
2023-01-28T18:01:00.939Z,101275.20
2023-01-28T18:03:33.979Z,101280.80
2023-01-28T18:06:07.622Z,101283.60
2023-01-28T18:08:40.711Z,101292.40
2023-01-28T18:11:16.385Z,101297.80
2023-01-28T18:13:50.010Z,101302.20
2023-01-28T18:16:23.882Z,101303.80
2023-01-28T18:18:56.944Z,101299.00
2023-01-28T18:21:54.175Z,101303.00
2023-01-28T18:24:30.085Z,101309.40
2023-01-28T18:27:04.398Z,101308.40
2023-01-28T18:29:37.439Z,101307.80
2023-01-28T18:32:11.041Z,101304.40
2023-01-28T18:34:44.233Z,101307.00
2023-01-28T18:37:17.467Z,101305.00
2023-01-28T18:39:50.592Z,101307.60
2023-01-28T18:42:23.752Z,101306.00
2023-01-28T18:44:56.997Z,101312.00
2023-01-28T18:47:30.481Z,101317.00
2023-01-28T18:50:04.301Z,101315.80
2023-01-28T18:52:37.317Z,101318.20
2023-01-28T18:55:12.914Z,101323.80
2023-01-28T18:57:45.991Z,101329.00
2023-01-28T19:00:20.790Z,101324.60
2023-01-28T19:02:53.905Z,101325.60
2023-01-28T19:05:27.060Z,101319.60
2023-01-28T19:08:00.159Z,101324.60
2023-01-28T19:10:33.877Z,101326.40
2023-01-28T19:13:07.125Z,101329.40
2023-01-28T19:15:40.340Z,101329.20
2023-01-28T19:18:13.503Z,101329.60
2023-01-28T19:20:46.713Z,101322.40
2023-01-28T19:23:19.869Z,101326.20
2023-01-28T19:25:52.959Z,101325.40
2023-01-28T19:28:26.053Z,101324.00
2023-01-28T19:30:59.273Z,101319.80
2023-01-28T19:33:32.768Z,101323.80
2023-01-28T19:36:06.594Z,101332.40
2023-01-28T19:38:39.665Z,101331.20
2023-01-28T19:41:16.306Z,101329.00
2023-01-28T19:43:49.682Z,101327.80
2023-01-28T19:46:23.166Z,101320.60
2023-01-28T19:48:56.630Z,101316.20
2023-01-28T19:51:29.697Z,101320.80
2023-01-28T19:54:02.761Z,101326.40
2023-01-28T19:56:37.785Z,101325.80
2023-01-28T19:59:10.962Z,101324.00
2023-01-28T20:01:44.315Z,101322.80
2023-01-28T20:04:17.394Z,101330.60
2023-01-28T20:06:51.813Z,101332.40
2023-01-28T20:09:27.516Z,101337.60
2023-01-28T20:12:00.656Z,101334.00
2023-01-28T20:14:34.265Z,101332.20
2023-01-28T20:17:07.325Z,101331.20
2023-01-28T20:19:40.704Z,101336.00
2023-01-28T20:22:13.810Z,101339.40
2023-01-28T20:24:46.879Z,101344.00
2023-01-28T20:27:19.976Z,101348.00
2023-01-28T20:29:53.572Z,101349.80
2023-01-28T20:32:26.758Z,101351.60
2023-01-28T20:34:59.986Z,101352.80
2023-01-28T20:37:33.146Z,101341.00
2023-01-28T20:40:06.903Z,101343.60
2023-01-28T20:42:40.340Z,101344.80
2023-01-28T20:45:14.566Z,101347.40
2023-01-28T20:47:48.023Z,101344.60
2023-01-28T20:50:21.964Z,101334.80
2023-01-28T20:52:55.174Z,101327.00
2023-01-28T20:55:29.335Z,101333.40
2023-01-28T20:58:02.476Z,101343.60
2023-01-28T21:00:35.562Z,101340.40
2023-01-28T21:03:08.650Z,101338.80
2023-01-28T21:05:41.936Z,101338.80
2023-01-28T21:08:16.161Z,101336.60
2023-01-28T21:10:50.077Z,101335.00
2023-01-28T21:13:23.145Z,101344.40
2023-01-28T21:16:00.396Z,101350.80
2023-01-28T21:18:33.681Z,101354.80
2023-01-28T21:21:11.918Z,101353.20
2023-01-28T21:23:44.948Z,101352.80
2023-01-28T21:26:18.643Z,101355.00
2023-01-28T21:28:51.858Z,101356.40
2023-01-28T21:31:27.034Z,101355.80
2023-01-28T21:34:02.608Z,101354.40
2023-01-28T21:36:37.359Z,101353.40
2023-01-28T21:39:10.698Z,101360.80
2023-01-28T21:41:44.201Z,101358.80
2023-01-28T21:44:17.336Z,101358.00
2023-01-28T22:27:06.005Z,101320.00
2023-01-28T22:29:39.443Z,101320.80
2023-01-28T22:32:12.890Z,101320.60
2023-01-28T22:34:47.050Z,101320.40
2023-01-28T22:37:20.518Z,101317.80
2023-01-28T22:39:56.128Z,101311.60
2023-01-28T22:42:29.761Z,101313.20
2023-01-28T22:45:03.108Z,101328.00
2023-01-28T22:47:36.151Z,101328.20
2023-01-28T22:50:11.088Z,101319.20
2023-01-28T22:52:44.169Z,101320.40
2023-01-28T22:55:17.353Z,101316.80
2023-01-28T22:57:50.442Z,101317.80
2023-01-28T23:00:29.759Z,101313.60
2023-01-28T23:03:02.852Z,101311.00
2023-01-28T23:05:35.998Z,101314.60
2023-01-28T23:08:12.569Z,101321.00
2023-01-28T23:10:50.367Z,101325.80
2023-01-28T23:13:25.193Z,101323.40
2023-01-28T23:16:15.852Z,101324.20
2023-01-28T23:19:06.136Z,101324.00
2023-01-28T23:21:58.300Z,101320.40
2023-01-28T23:24:33.786Z,101322.20
2023-01-28T23:27:07.039Z,101324.60
2023-01-28T23:29:40.252Z,101325.20
2023-01-28T23:32:14.202Z,101321.20
2023-01-28T23:34:47.440Z,101326.20
2023-01-28T23:37:20.661Z,101326.80
2023-01-28T23:39:53.657Z,101321.60
2023-01-28T23:42:26.671Z,101324.20
2023-01-28T23:44:59.644Z,101328.20
2023-01-28T23:47:33.214Z,101328.20
2023-01-28T23:50:07.087Z,101323.60
2023-01-28T23:52:40.258Z,101327.80
2023-01-28T23:55:14.200Z,101336.00
2023-01-28T23:57:47.300Z,101329.00
